Latest Weather Observations for Maryborough

IDQ60801

Issued at 5:32 pm EST Friday 29 May 2015 (issued every 30 minutes, with the page automatically refreshed every 10 minutes)

About weather observations | Map of weather stations | Latest weather observations for QLD | Other Formats
Station Details ID: 040126 Name: MARYBOROUGH Lat: -25.52 Lon: 152.72 Height: 10.28 m
Data from the previous 72 hours. | See also: Recent months at Maryborough
Date/Time
EST
Temp
°C
App
Temp
°C
Dew
Point
Rel
Hum
%
Delta-T
°C
Wind Press
QNH
hPa
Press
MSL
hPa
Rain
since 9 am
mm
Dir
 
Spd
km/h
Gust
km/h
Spd
kts
Gust
kts
29/05:30pm 20.8 21.1 16.0 74 2.9 NE 9 13 5 7 1021.9 - 0.0
29/05:00pm 22.2 22.1 16.0 68 3.7 NE 11 13 6 7 1021.5 - 0.0
29/04:30pm 23.7 23.4 16.5 64 4.4 E 13 15 7 8 1021.3 - 0.0
29/04:00pm 24.9 24.5 16.3 59 5.3 E 13 17 7 9 1021.2 - 0.0
29/03:30pm 25.9 25.3 14.7 50 6.7 NE 11 15 6 8 1021.0 - 0.0
29/03:00pm 26.1 26.8 15.5 52 6.4 NE 6 11 3 6 1020.9 1020.9 0.0
29/02:30pm 26.4 27.1 16.0 52 6.4 N 7 13 4 7 1021.1 - 0.0
29/02:00pm 26.5 26.3 15.8 51 6.5 NW 11 15 6 8 1021.3 - 0.0
29/01:30pm 25.9 25.8 15.9 54 6.1 NW 11 15 6 8 1021.4 - 0.0
29/01:00pm 25.6 25.9 15.9 55 5.9 N 9 17 5 9 1021.6 - 0.0
29/12:30pm 25.5 26.2 16.1 56 5.7 N 7 11 4 6 1022.1 - 0.0
29/12:00pm 24.7 24.7 16.2 59 5.2 NE 11 17 6 9 1022.6 1022.6 0.0
29/11:30am 25.1 25.6 16.5 59 5.3 N 9 15 5 8 1023.1 - 0.0
29/11:00am 24.7 26.7 17.9 66 4.3 N 4 7 2 4 1023.2 - 0.0
29/10:30am 23.7 25.1 17.4 68 3.9 SSE 6 9 3 5 1023.7 - 0.0
29/10:00am 21.8 22.9 17.2 75 2.8 S 7 11 4 6 1024.2 - 0.0
29/09:30am 20.5 21.3 17.3 82 2.0 S 9 13 5 7 1024.6 - 0.0
29/09:00am 18.8 19.2 16.2 85 1.5 S 9 11 5 6 1024.5 1024.5 0.0
29/08:30am 17.9 18.5 15.9 88 1.2 SW 7 9 4 5 1024.4 - 0.0
29/08:00am 16.8 17.0 15.7 93 0.6 SSW 9 13 5 7 1024.2 - 0.0
29/07:34am 15.5 16.3 14.9 96 0.3 SW 4 9 2 5 1024.1 - 0.0
29/07:30am 15.5 16.7 15.0 97 0.3 SW 2 6 1 3 1024.1 - 0.0
29/07:00am 14.0 15.1 13.4 96 0.3 CALM 0 0 0 0 1024.0 - 0.0
29/06:30am 14.1 13.9 13.5 96 0.3 SW 7 9 4 5 1023.7 - 0.0
29/06:23am 14.2 14.0 13.6 96 0.3 SW 7 9 4 5 1023.6 - 0.0
29/06:10am 14.6 14.6 14.1 97 0.3 SW 7 11 4 6 1023.5 - 0.0
29/06:00am 14.5 14.4 14.0 97 0.3 SW 7 7 4 4 1023.3 1023.3 0.0
29/05:30am 14.7 14.7 14.2 97 0.3 SW 7 9 4 5 1022.9 - 0.0
29/05:00am 14.9 14.6 14.4 97 0.3 SW 9 11 5 6 1022.6 - 0.0
29/04:30am 15.0 15.1 14.5 97 0.3 SW 7 9 4 5 1022.6 - 0.0
29/04:00am 14.6 15.8 13.8 95 0.4 CALM 0 0 0 0 1022.5 - 0.0
29/03:30am 15.2 15.5 14.4 95 0.5 SW 6 7 3 4 1022.6 - 0.0
29/03:00am 15.8 16.4 15.3 97 0.3 SW 6 7 3 4 1022.8 1022.8 0.0
29/02:30am 15.6 15.9 15.1 97 0.3 WSW 7 9 4 5 1022.8 - 0.0
29/02:00am 15.8 16.2 15.3 97 0.3 SW 7 11 4 6 1022.7 - 0.0
29/01:30am 15.9 16.0 15.6 98 0.2 SSW 9 11 5 6 1023.1 - 0.0
29/01:00am 15.7 16.3 15.2 97 0.3 SSW 6 7 3 4 1023.1 - 0.0
29/12:30am 15.5 15.4 14.9 96 0.3 SSW 9 9 5 5 1023.4 - 0.0
29/12:00am 15.6 15.9 15.1 97 0.3 SSW 7 9 4 5 1023.5 1023.5 0.0
 
Date/Time
EST
Temp
°C
App
Temp
°C
Dew
Point
Rel
Hum
%
Delta-T
°C
Wind Press
QNH
hPa
Press
MSL
hPa
Rain
since 9 am
mm
Dir
 
Spd
km/h
Gust
km/h
Spd
kts
Gust
kts
28/11:30pm 15.6 15.9 15.0 96 0.3 S 7 9 4 5 1023.5 - 0.0
28/11:00pm 15.9 15.5 15.3 96 0.3 S 11 13 6 7 1023.5 - 0.0
28/10:30pm 16.5 16.0 16.0 97 0.3 S 13 15 7 8 1023.8 - 0.0
28/10:00pm 16.3 16.1 15.8 97 0.3 SSW 11 13 6 7 1023.9 - 0.0
28/09:30pm 16.0 16.4 15.2 95 0.5 SSW 7 7 4 4 1023.9 - 0.0
28/09:00pm 16.4 17.1 15.6 95 0.5 SSW 6 7 3 4 1023.9 1023.9 0.0
28/08:31pm 16.2 16.5 14.9 92 0.7 SSW 7 9 4 5 1023.9 - 0.0
28/08:30pm 16.2 16.5 14.9 92 0.7 SSW 7 9 4 5 1023.9 - 0.0
28/08:06pm 16.9 17.3 16.4 97 0.3 S 9 9 5 5 1023.8 - 0.0
28/08:00pm 16.9 17.7 16.3 96 0.4 S 7 9 4 5 1023.6 - 0.0
28/07:48pm 16.2 16.5 14.9 92 0.7 S 7 9 4 5 1023.6 - 0.0
28/07:30pm 16.9 18.5 15.9 94 0.6 SE 2 9 1 5 1023.4 - 0.0
28/07:00pm 17.2 19.3 16.2 94 0.6 CALM 0 0 0 0 1023.0 - 0.0
28/06:30pm 17.4 17.7 14.9 85 1.4 SE 7 7 4 4 1022.6 - 0.0
28/06:00pm 18.0 18.5 15.6 86 1.4 ESE 7 9 4 5 1022.2 1022.2 0.0
28/05:30pm 18.9 18.7 15.6 81 1.9 E 11 13 6 7 1021.9 - 0.0
28/05:00pm 20.6 19.8 16.2 76 2.6 E 15 19 8 10 1021.9 - 0.0
28/04:30pm 21.9 21.1 16.2 70 3.4 E 15 20 8 11 1021.7 - 0.0
28/04:00pm 23.5 22.7 16.1 63 4.5 E 15 20 8 11 1021.4 - 0.0
28/03:30pm 23.9 22.4 15.4 59 5.1 E 17 22 9 12 1021.4 - 0.0
28/03:00pm 24.3 22.9 15.5 58 5.3 ESE 17 20 9 11 1021.2 1021.2 0.0
28/02:30pm 24.2 23.2 15.7 59 5.1 E 15 19 8 10 1021.2 - 0.0
28/02:00pm 24.9 23.9 15.5 56 5.7 SE 15 20 8 11 1021.6 - 0.0
28/01:30pm 23.7 22.9 16.2 63 4.6 ESE 15 20 8 11 1021.7 - 0.0
28/01:00pm 23.8 23.8 17.1 66 4.1 E 13 19 7 10 1021.7 - 0.0
28/12:30pm 24.4 23.1 15.9 59 5.2 SE 17 24 9 13 1022.1 - 0.0
28/12:00pm 23.3 23.9 15.9 63 4.5 ESE 7 11 4 6 1022.9 1022.9 0.0
28/11:30am 23.0 22.8 15.8 64 4.3 SE 11 15 6 8 1023.2 - 0.0
28/11:00am 22.7 23.4 16.0 66 4.0 SE 7 11 4 6 1023.4 - 0.0
28/10:30am 22.8 23.4 16.8 69 3.7 SSW 9 15 5 8 1023.7 - 0.0
28/10:00am 21.6 22.3 17.0 75 2.8 SSW 9 13 5 7 1023.9 - 0.0
28/09:30am 20.4 21.4 16.8 80 2.2 SSW 7 11 4 6 1024.0 - 0.0
28/09:00am 19.3 19.9 16.9 86 1.4 SSW 9 13 5 7 1023.9 1023.9 0.0
28/08:30am 17.8 18.4 15.8 88 1.2 S 7 9 4 5 1023.8 - 0.0
28/08:00am 16.4 16.0 15.3 93 0.6 S 11 13 6 7 1023.7 - 0.0
28/07:30am 15.6 15.0 14.5 93 0.6 S 11 15 6 8 1023.7 - 0.0
28/07:00am 15.2 14.6 14.6 96 0.3 SSW 11 13 6 7 1023.5 - 0.0
28/06:30am 14.5 14.0 13.9 96 0.3 SSW 9 11 5 6 1022.9 - 0.0
28/06:00am 14.6 14.5 13.8 95 0.4 SSW 7 9 4 5 1022.5 1022.5 0.0
28/05:30am 15.0 14.7 14.4 96 0.3 SSW 9 11 5 6 1022.4 - 0.0
28/05:00am 15.3 15.2 15.0 98 0.2 SW 9 13 5 7 1022.6 - 0.0
28/04:30am 14.7 14.0 14.2 97 0.3 SSW 11 13 6 7 1022.0 - 0.0
28/04:00am 14.9 14.6 14.4 97 0.3 S 9 11 5 6 1021.9 - 0.0
28/03:47am 14.9 15.0 14.4 97 0.3 SSW 7 9 4 5 1022.0 - 0.0
28/03:30am 14.8 14.8 14.2 96 0.3 SSW 7 11 4 6 1022.0 - 0.0
28/03:00am 15.0 14.7 14.4 96 0.3 SW 9 9 5 5 1021.9 1021.9 0.0
28/02:30am 15.4 15.4 15.1 98 0.2 SW 9 13 5 7 1021.8 - 0.0
28/02:00am 14.9 14.6 14.4 97 0.3 S 9 9 5 5 1021.8 - 0.0
28/01:30am 15.0 14.7 14.5 97 0.3 S 9 13 5 7 1022.3 - 0.0
28/01:00am 15.2 15.5 15.0 99 0.1 S 7 9 4 5 1022.7 - 0.0
28/12:30am 14.1 15.1 13.1 94 0.6 CALM 0 0 0 0 1022.8 - 0.0
28/12:00am 14.7 16.0 14.1 96 0.3 CALM 0 0 0 0 1022.5 1022.5 0.0
 
Date/Time
EST
Temp
°C
App
Temp
°C
Dew
Point
Rel
Hum
%
Delta-T
°C
Wind Press
QNH
hPa
Press
MSL
hPa
Rain
since 9 am
mm
Dir
 
Spd
km/h
Gust
km/h
Spd
kts
Gust
kts
27/11:30pm 15.4 16.5 14.6 95 0.5 S 2 6 1 3 1022.6 - 0.0
27/11:00pm 15.7 15.6 14.9 95 0.5 S 9 11 5 6 1022.9 - 0.0
27/10:37pm 16.0 16.0 15.2 95 0.5 SSW 9 13 5 7 1023.2 - 0.0
27/10:30pm 16.0 16.0 15.2 95 0.5 SSW 9 13 5 7 1023.2 - 0.0
27/10:00pm 16.0 16.0 15.2 95 0.5 S 9 11 5 6 1022.9 - 0.0
27/09:30pm 16.3 16.7 15.3 94 0.6 ESE 7 9 4 5 1022.9 - 0.0
27/09:00pm 16.7 17.3 15.7 94 0.6 ESE 7 9 4 5 1022.8 1022.8 0.0
27/08:30pm 17.1 17.8 16.0 93 0.6 ESE 7 9 4 5 1022.9 - 0.0
27/08:00pm 17.2 18.3 15.7 91 0.9 ESE 4 6 2 3 1023.1 - 0.0
27/07:30pm 17.6 18.3 16.1 91 0.9 ESE 7 7 4 4 1022.9 - 0.0
27/07:00pm 17.5 18.2 16.0 91 0.9 ESE 7 7 4 4 1022.6 - 0.0
27/06:30pm 17.6 17.8 15.8 89 1.1 ESE 9 11 5 6 1022.2 - 0.0
27/06:00pm 17.9 18.1 15.7 87 1.3 ESE 9 11 5 6 1022.1 1022.1 0.0
27/05:30pm 18.6 18.4 15.8 84 1.7 ESE 11 13 6 7 1021.6 - 0.0
27/05:00pm 19.6 19.2 16.1 80 2.1 ESE 13 17 7 9 1021.6 - 0.0
27/04:30pm 20.8 20.3 15.8 73 3.0 ESE 13 17 7 9 1021.3 - 0.0
27/04:00pm 22.0 21.0 15.6 67 3.8 ESE 15 19 8 10 1021.1 - 0.0
27/03:30pm 23.3 21.5 16.1 64 4.4 E 20 26 11 14 1020.8 - 0.0
27/03:00pm 23.4 22.0 15.5 61 4.7 SE 17 22 9 12 1020.8 1020.8 0.0
27/02:30pm 23.1 21.6 15.4 62 4.6 ESE 17 20 9 11 1021.0 - 0.0
27/02:00pm 22.9 21.8 15.2 62 4.6 SE 15 20 8 11 1021.0 - 0.0
27/01:30pm 23.1 22.1 14.7 59 5.0 SE 13 19 7 10 1021.1 - 0.0
27/01:00pm 23.4 23.2 14.7 58 5.2 SE 9 17 5 9 1021.5 - 0.0
27/12:30pm 24.0 23.2 15.2 58 5.3 SE 13 20 7 11 1022.2 - 0.0
27/12:00pm 24.0 23.5 16.0 61 4.8 ESE 13 20 7 11 1022.8 1022.8 0.0
27/11:30am 22.5 21.9 15.6 65 4.1 SSE 13 17 7 9 1023.2 - 0.0
27/11:00am 23.2 23.2 16.3 65 4.2 SE 11 20 6 11 1023.7 - 0.0
27/10:30am 21.8 21.1 16.3 71 3.3 SSE 15 20 8 11 1023.8 - 0.0
27/10:28am 21.8 21.0 16.1 70 3.4 SSE 15 20 8 11 1023.8 - 0.0
27/10:06am 22.0 21.6 16.1 69 3.6 S 13 19 7 10 1023.9 - 0.0
27/10:00am 22.0 21.8 16.7 72 3.2 S 13 19 7 10 1024.0 - 0.0
27/09:30am 20.8 20.2 16.6 77 2.5 SSE 15 19 8 10 1024.3 - 0.0
27/09:00am 19.1 18.3 16.0 82 1.8 SSE 15 19 8 10 1024.2 1024.2 0.2
27/08:30am 18.0 17.4 15.6 86 1.4 S 13 17 7 9 1024.5 - 0.2
27/08:00am 16.8 16.4 15.3 91 0.9 S 11 17 6 9 1024.4 - 0.2
27/07:30am 15.4 14.7 14.4 94 0.6 S 11 15 6 8 1023.9 - 0.2
27/07:00am 14.6 14.3 14.3 98 0.2 S 9 13 5 7 1023.7 - 0.2
27/06:30am 13.7 13.4 13.2 97 0.3 SSW 7 9 4 5 1023.2 - 0.2
27/06:00am 13.9 13.3 13.6 98 0.2 SSW 9 9 5 5 1022.9 1022.9 0.2
27/05:50am 13.9 13.3 13.6 98 0.2 SSW 9 11 5 6 1022.9 - 0.2
27/05:30am 13.5 13.1 12.9 96 0.3 SSW 7 9 4 5 1022.7 - 0.2
27/05:28am 13.5 13.1 12.9 96 0.3 SSW 7 9 4 5 1022.6 - 0.2
27/05:26am 13.5 13.1 12.9 96 0.3 SSW 7 9 4 5 1022.6 - 0.2
27/05:00am 13.9 13.6 13.4 97 0.3 SSW 7 7 4 4 1022.3 - 0.2
27/04:30am 14.2 14.1 14.0 99 0.1 SSW 7 7 4 4 1022.3 - 0.2
27/04:00am 13.6 13.4 13.1 97 0.3 SSW 6 7 3 4 1022.4 - 0.2
27/03:56am 13.8 13.7 13.3 97 0.3 SSW 6 7 3 4 1022.4 - 0.2
27/03:50am 13.6 13.4 13.0 96 0.3 SSW 6 7 3 4 1022.5 - 0.2
27/03:30am 13.7 14.4 13.4 98 0.2 SSW 2 7 1 4 1022.7 - 0.2
27/03:00am 13.8 13.6 13.5 98 0.2 SSW 7 9 4 5 1022.7 1022.7 0.2
27/02:30am 13.5 14.4 12.9 96 0.3 CALM 0 4 0 2 1023.1 - 0.2
27/02:00am 14.4 15.3 13.9 97 0.3 SSW 2 9 1 5 1023.3 - 0.2
27/01:30am 13.9 14.8 13.0 94 0.5 CALM 0 0 0 0 1023.3 - 0.2
27/01:02am 15.1 15.3 14.1 94 0.6 SSW 6 7 3 4 1023.6 - 0.2
27/01:00am 15.3 15.5 14.3 94 0.6 SSW 6 7 3 4 1023.6 - 0.2
27/12:30am 15.7 16.0 14.9 95 0.5 SSW 7 9 4 5 1024.0 - 0.2
27/12:00am 15.8 16.2 15.2 96 0.3 SSW 7 11 4 6 1023.8 1023.8 0.2
 
Date/Time
EST
Temp
°C
App
Temp
°C
Dew
Point
Rel
Hum
%
Delta-T
°C
Wind Press
QNH
hPa
Press
MSL
hPa
Rain
since 9 am
mm
Dir
 
Spd
km/h
Gust
km/h
Spd
kts
Gust
kts
26/11:30pm 15.6 15.9 15.0 96 0.3 SSW 7 9 4 5 1023.9 - 0.2
26/11:16pm 15.4 15.7 14.4 94 0.6 SSW 6 7 3 4 1023.9 - 0.2
26/11:00pm 15.7 16.0 14.9 95 0.5 SSW 7 9 4 5 1024.2 - 0.2
26/10:30pm 16.2 17.6 15.4 95 0.5 SSW 2 6 1 3 1024.4 - 0.2
26/10:25pm 15.9 16.2 14.4 91 0.9 SSW 6 7 3 4 1024.5 - 0.2
26/10:00pm 16.8 17.5 15.5 92 0.8 SSW 6 6 3 3 1024.9 - 0.2
26/09:30pm 17.2 17.9 15.7 91 0.9 SSW 6 7 3 4 1024.9 - 0.2
26/09:00pm 17.2 17.7 15.5 90 1.0 S 7 9 4 5 1024.8 1024.8 0.2
26/08:30pm 17.4 17.6 15.7 90 1.0 SSE 9 11 5 6 1024.8 - 0.2
26/08:00pm 17.6 18.2 15.9 90 1.0 SSE 7 11 4 6 1025.2 - 0.2
26/07:30pm 17.7 18.4 16.0 90 1.0 SSE 7 11 4 6 1025.2 - 0.2
26/07:00pm 17.8 18.9 16.5 92 0.8 SSE 6 7 3 4 1025.0 - 0.2
26/06:30pm 17.8 18.7 16.5 92 0.8 SE 7 9 4 5 1024.8 - 0.2
26/06:00pm 18.0 19.5 16.7 92 0.8 ENE 4 6 2 3 1024.6 1024.6 0.2

Other Formats:

Comma delimited format used in spreadsheet applications
http://www.bom.gov.au/fwo/IDQ60801/IDQ60801.94567.axf

JavaScript Object Notation format (JSON) in row-major order
http://www.bom.gov.au/fwo/IDQ60801/IDQ60801.94567.json